sensor_id;sensor_type;location;lat;lon;timestamp;pressure;altitude;pressure_sealevel;temperature;humidity
22000;BME280;11164;48.818;2.322;2023-04-29T00:00:44;100709.88;;;16.54;40.63
22000;BME280;11164;48.818;2.322;2023-04-29T00:03:09;100706.31;;;16.42;40.79
22000;BME280;11164;48.818;2.322;2023-04-29T00:05:35;100702.28;;;16.44;40.47
22000;BME280;11164;48.818;2.322;2023-04-29T00:08:00;100703.16;;;16.03;41.16
22000;BME280;11164;48.818;2.322;2023-04-29T00:10:26;100700.00;;;16.18;41.02
22000;BME280;11164;48.818;2.322;2023-04-29T00:12:51;100698.31;;;16.05;41.29
22000;BME280;11164;48.818;2.322;2023-04-29T00:15:17;100691.13;;;16.10;41.32
22000;BME280;11164;48.818;2.322;2023-04-29T00:17:43;100697.63;;;16.09;41.26
22000;BME280;11164;48.818;2.322;2023-04-29T00:20:10;100703.00;;;15.98;41.35
22000;BME280;11164;48.818;2.322;2023-04-29T00:22:37;100709.03;;;16.00;41.25
22000;BME280;11164;48.818;2.322;2023-04-29T00:25:03;100694.88;;;16.09;41.05
22000;BME280;11164;48.818;2.322;2023-04-29T00:27:28;100692.16;;;16.09;41.27
22000;BME280;11164;48.818;2.322;2023-04-29T00:29:54;100694.75;;;16.04;41.32
22000;BME280;11164;48.818;2.322;2023-04-29T00:32:19;100697.34;;;15.99;41.36
22000;BME280;11164;48.818;2.322;2023-04-29T00:34:44;100680.94;;;16.06;41.19
22000;BME280;11164;48.818;2.322;2023-04-29T00:37:10;100686.16;;;16.07;41.38
22000;BME280;11164;48.818;2.322;2023-04-29T00:39:35;100685.09;;;16.20;41.07
22000;BME280;11164;48.818;2.322;2023-04-29T00:42:01;100686.66;;;16.28;40.90
22000;BME280;11164;48.818;2.322;2023-04-29T00:44:27;100689.59;;;16.26;41.05
22000;BME280;11164;48.818;2.322;2023-04-29T00:46:52;100682.38;;;16.20;41.01
22000;BME280;11164;48.818;2.322;2023-04-29T00:49:18;100681.69;;;16.25;40.90
22000;BME280;11164;48.818;2.322;2023-04-29T00:51:44;100681.94;;;16.35;40.73
22000;BME280;11164;48.818;2.322;2023-04-29T00:54:10;100686.56;;;16.35;40.76
22000;BME280;11164;48.818;2.322;2023-04-29T00:56:36;100681.44;;;16.26;40.72
22000;BME280;11164;48.818;2.322;2023-04-29T00:59:05;100687.72;;;16.27;40.84
22000;BME280;11164;48.818;2.322;2023-04-29T01:01:33;100686.59;;;16.04;41.27
22000;BME280;11164;48.818;2.322;2023-04-29T01:03:59;100671.94;;;16.05;41.31
22000;BME280;11164;48.818;2.322;2023-04-29T01:09:25;100686.06;;;16.61;42.56
22000;BME280;11164;48.818;2.322;2023-04-29T01:14:24;100680.13;;;16.29;40.36
22000;BME280;11164;48.818;2.322;2023-04-29T01:16:58;100690.19;;;16.28;41.00
22000;BME280;11164;48.818;2.322;2023-04-29T01:19:46;100680.25;;;16.10;41.02
22000;BME280;11164;48.818;2.322;2023-04-29T01:22:12;100676.34;;;16.18;40.73
22000;BME280;11164;48.818;2.322;2023-04-29T01:24:46;100683.94;;;16.28;40.69
22000;BME280;11164;48.818;2.322;2023-04-29T01:27:29;100679.66;;;16.32;40.44
22000;BME280;11164;48.818;2.322;2023-04-29T01:30:09;100688.94;;;16.78;42.35
22000;BME280;11164;48.818;2.322;2023-04-29T01:38:22;100694.09;;;16.32;40.70
22000;BME280;11164;48.818;2.322;2023-04-29T01:41:13;100685.47;;;16.36;40.52
22000;BME280;11164;48.818;2.322;2023-04-29T01:43:41;100681.09;;;16.35;40.17
22000;BME280;11164;48.818;2.322;2023-04-29T01:46:11;100674.09;;;16.15;40.80
22000;BME280;11164;48.818;2.322;2023-04-29T01:48:40;100667.47;;;16.23;40.81
22000;BME280;11164;48.818;2.322;2023-04-29T01:51:05;100665.91;;;16.15;40.80
22000;BME280;11164;48.818;2.322;2023-04-29T01:53:31;100674.56;;;16.12;40.84
22000;BME280;11164;48.818;2.322;2023-04-29T01:55:57;100683.75;;;15.99;41.26
22000;BME280;11164;48.818;2.322;2023-04-29T01:58:22;100672.53;;;16.07;41.00
22000;BME280;11164;48.818;2.322;2023-04-29T02:00:47;100670.06;;;16.06;40.88
22000;BME280;11164;48.818;2.322;2023-04-29T02:03:13;100669.03;;;15.77;41.39
22000;BME280;11164;48.818;2.322;2023-04-29T02:05:38;100672.50;;;15.65;41.67
22000;BME280;11164;48.818;2.322;2023-04-29T02:08:04;100665.88;;;15.61;41.96
22000;BME280;11164;48.818;2.322;2023-04-29T02:10:31;100670.84;;;15.64;42.01
22000;BME280;11164;48.818;2.322;2023-04-29T02:12:57;100669.84;;;15.77;41.50
22000;BME280;11164;48.818;2.322;2023-04-29T02:15:25;100670.22;;;15.81;41.45
22000;BME280;11164;48.818;2.322;2023-04-29T02:17:51;100663.41;;;15.71;41.49
22000;BME280;11164;48.818;2.322;2023-04-29T02:20:16;100675.41;;;15.82;41.57
22000;BME280;11164;48.818;2.322;2023-04-29T02:22:42;100681.81;;;15.76;41.64
22000;BME280;11164;48.818;2.322;2023-04-29T02:25:07;100686.94;;;15.96;41.20
22000;BME280;11164;48.818;2.322;2023-04-29T02:27:33;100679.25;;;16.05;40.87
22000;BME280;11164;48.818;2.322;2023-04-29T02:29:58;100684.75;;;15.74;41.76
22000;BME280;11164;48.818;2.322;2023-04-29T02:32:24;100683.97;;;15.67;41.73
22000;BME280;11164;48.818;2.322;2023-04-29T02:34:49;100690.09;;;15.63;41.91
22000;BME280;11164;48.818;2.322;2023-04-29T02:37:15;100684.88;;;15.61;42.05
22000;BME280;11164;48.818;2.322;2023-04-29T02:39:41;100684.66;;;15.63;42.02
22000;BME280;11164;48.818;2.322;2023-04-29T02:42:06;100682.31;;;15.66;41.89
22000;BME280;11164;48.818;2.322;2023-04-29T02:44:32;100679.50;;;15.43;42.18
22000;BME280;11164;48.818;2.322;2023-04-29T02:46:57;100678.94;;;15.52;42.07
22000;BME280;11164;48.818;2.322;2023-04-29T02:49:22;100674.63;;;15.63;41.92
22000;BME280;11164;48.818;2.322;2023-04-29T02:51:48;100683.28;;;15.72;41.64
22000;BME280;11164;48.818;2.322;2023-04-29T02:54:16;100686.00;;;15.72;41.66
22000;BME280;11164;48.818;2.322;2023-04-29T02:56:42;100682.09;;;15.68;41.67
22000;BME280;11164;48.818;2.322;2023-04-29T02:59:07;100688.19;;;15.82;41.48
22000;BME280;11164;48.818;2.322;2023-04-29T03:01:33;100696.50;;;15.87;41.43
22000;BME280;11164;48.818;2.322;2023-04-29T03:03:59;100689.28;;;15.62;41.88
22000;BME280;11164;48.818;2.322;2023-04-29T03:06:24;100692.31;;;15.54;42.08
22000;BME280;11164;48.818;2.322;2023-04-29T03:08:50;100686.00;;;15.42;42.21
22000;BME280;11164;48.818;2.322;2023-04-29T03:11:16;100693.94;;;15.25;42.66
22000;BME280;11164;48.818;2.322;2023-04-29T03:13:42;100690.38;;;15.24;42.13
22000;BME280;11164;48.818;2.322;2023-04-29T03:16:07;100694.16;;;15.23;42.54
22000;BME280;11164;48.818;2.322;2023-04-29T03:18:32;100691.28;;;15.36;42.40
22000;BME280;11164;48.818;2.322;2023-04-29T03:20:57;100701.91;;;15.38;42.34
22000;BME280;11164;48.818;2.322;2023-04-29T03:23:23;100702.06;;;15.43;42.17
22000;BME280;11164;48.818;2.322;2023-04-29T03:25:49;100710.97;;;15.50;41.97
22000;BME280;11164;48.818;2.322;2023-04-29T03:28:17;100704.25;;;15.53;42.04
22000;BME280;11164;48.818;2.322;2023-04-29T03:30:42;100704.25;;;15.53;42.16
22000;BME280;11164;48.818;2.322;2023-04-29T03:33:07;100712.00;;;15.49;42.39
22000;BME280;11164;48.818;2.322;2023-04-29T03:35:33;100703.25;;;15.47;42.40
22000;BME280;11164;48.818;2.322;2023-04-29T03:37:58;100719.03;;;15.38;42.58
22000;BME280;11164;48.818;2.322;2023-04-29T03:40:23;100720.41;;;15.48;42.52
22000;BME280;11164;48.818;2.322;2023-04-29T03:42:49;100707.56;;;15.55;42.25
22000;BME280;11164;48.818;2.322;2023-04-29T03:45:14;100698.97;;;15.40;42.68
22000;BME280;11164;48.818;2.322;2023-04-29T03:47:40;100713.44;;;15.52;42.62
22000;BME280;11164;48.818;2.322;2023-04-29T03:50:06;100713.97;;;15.61;42.49
22000;BME280;11164;48.818;2.322;2023-04-29T03:52:32;100711.13;;;15.37;42.92
22000;BME280;11164;48.818;2.322;2023-04-29T03:55:01;100711.59;;;15.34;43.21
22000;BME280;11164;48.818;2.322;2023-04-29T03:57:26;100715.94;;;15.53;42.74
22000;BME280;11164;48.818;2.322;2023-04-29T03:59:52;100718.59;;;15.72;42.57
22000;BME280;11164;48.818;2.322;2023-04-29T04:02:17;100719.28;;;15.86;42.17
22000;BME280;11164;48.818;2.322;2023-04-29T04:04:43;100713.97;;;15.42;43.05
22000;BME280;11164;48.818;2.322;2023-04-29T04:07:09;100717.84;;;15.53;42.99
22000;BME280;11164;48.818;2.322;2023-04-29T04:09:36;100724.31;;;15.70;42.56
22000;BME280;11164;48.818;2.322;2023-04-29T04:12:01;100724.38;;;15.64;42.69
22000;BME280;11164;48.818;2.322;2023-04-29T04:14:27;100727.03;;;15.52;43.03
22000;BME280;11164;48.818;2.322;2023-04-29T04:16:53;100734.16;;;15.53;43.16
22000;BME280;11164;48.818;2.322;2023-04-29T04:19:18;100719.19;;;15.44;42.99
22000;BME280;11164;48.818;2.322;2023-04-29T04:21:44;100729.38;;;15.48;42.99
22000;BME280;11164;48.818;2.322;2023-04-29T04:24:09;100735.88;;;15.47;43.04
22000;BME280;11164;48.818;2.322;2023-04-29T04:26:35;100731.97;;;15.43;43.11
22000;BME280;11164;48.818;2.322;2023-04-29T04:29:00;100734.97;;;15.35;43.25
22000;BME280;11164;48.818;2.322;2023-04-29T04:31:27;100740.31;;;15.23;43.41
22000;BME280;11164;48.818;2.322;2023-04-29T04:33:52;100736.72;;;15.29;43.35
22000;BME280;11164;48.818;2.322;2023-04-29T04:36:18;100737.84;;;15.22;43.46
22000;BME280;11164;48.818;2.322;2023-04-29T04:38:43;100748.19;;;15.31;43.18
22000;BME280;11164;48.818;2.322;2023-04-29T04:41:08;100739.59;;;15.34;43.14
22000;BME280;11164;48.818;2.322;2023-04-29T04:43:33;100745.31;;;15.26;43.38
22000;BME280;11164;48.818;2.322;2023-04-29T04:45:59;100747.19;;;15.44;43.16
22000;BME280;11164;48.818;2.322;2023-04-29T04:48:24;100749.91;;;15.44;43.09
22000;BME280;11164;48.818;2.322;2023-04-29T04:50:50;100750.53;;;15.46;42.84
22000;BME280;11164;48.818;2.322;2023-04-29T04:53:15;100755.19;;;15.57;42.76
22000;BME280;11164;48.818;2.322;2023-04-29T04:55:41;100758.91;;;15.45;43.13
22000;BME280;11164;48.818;2.322;2023-04-29T04:58:06;100766.28;;;15.56;42.97
22000;BME280;11164;48.818;2.322;2023-04-29T05:00:32;100769.88;;;15.68;42.86
22000;BME280;11164;48.818;2.322;2023-04-29T05:02:57;100766.88;;;15.58;42.97
22000;BME280;11164;48.818;2.322;2023-04-29T05:05:22;100766.56;;;15.66;42.69
22000;BME280;11164;48.818;2.322;2023-04-29T05:07:48;100774.50;;;15.68;42.85
22000;BME280;11164;48.818;2.322;2023-04-29T05:10:13;100784.47;;;15.55;43.00
22000;BME280;11164;48.818;2.322;2023-04-29T05:12:38;100788.41;;;15.60;43.13
22000;BME280;11164;48.818;2.322;2023-04-29T05:15:04;100791.59;;;15.75;42.70
22000;BME280;11164;48.818;2.322;2023-04-29T05:17:29;100792.19;;;15.40;43.61
22000;BME280;11164;48.818;2.322;2023-04-29T05:19:55;100792.25;;;15.15;43.89
22000;BME280;11164;48.818;2.322;2023-04-29T05:22:20;100795.50;;;15.42;43.25
22000;BME280;11164;48.818;2.322;2023-04-29T05:24:46;100797.69;;;15.52;43.02
22000;BME280;11164;48.818;2.322;2023-04-29T05:27:13;100800.09;;;15.23;43.61
22000;BME280;11164;48.818;2.322;2023-04-29T05:29:38;100808.25;;;15.42;43.45
22000;BME280;11164;48.818;2.322;2023-04-29T05:32:04;100811.66;;;15.18;43.76
22000;BME280;11164;48.818;2.322;2023-04-29T05:34:29;100818.81;;;14.88;44.25
22000;BME280;11164;48.818;2.322;2023-04-29T05:36:55;100818.63;;;15.08;43.90
22000;BME280;11164;48.818;2.322;2023-04-29T05:39:21;100824.41;;;15.36;43.51
22000;BME280;11164;48.818;2.322;2023-04-29T05:41:47;100827.78;;;15.32;43.42
22000;BME280;11164;48.818;2.322;2023-04-29T05:44:12;100832.34;;;15.38;43.48
22000;BME280;11164;48.818;2.322;2023-04-29T05:46:37;100838.97;;;15.42;43.44
22000;BME280;11164;48.818;2.322;2023-04-29T05:49:03;100837.38;;;15.34;43.47
22000;BME280;11164;48.818;2.322;2023-04-29T05:51:28;100840.66;;;15.18;43.87
22000;BME280;11164;48.818;2.322;2023-04-29T05:53:54;100840.09;;;14.91;44.19
22000;BME280;11164;48.818;2.322;2023-04-29T05:56:19;100831.25;;;14.95;43.92
22000;BME280;11164;48.818;2.322;2023-04-29T05:58:45;100846.03;;;15.25;43.67
22000;BME280;11164;48.818;2.322;2023-04-29T06:01:10;100849.31;;;15.33;43.61
22000;BME280;11164;48.818;2.322;2023-04-29T06:03:36;100852.50;;;15.49;43.34
22000;BME280;11164;48.818;2.322;2023-04-29T06:06:01;100843.53;;;15.48;43.22
22000;BME280;11164;48.818;2.322;2023-04-29T06:08:28;100857.78;;;15.44;43.42
22000;BME280;11164;48.818;2.322;2023-04-29T06:10:53;100848.53;;;15.26;43.51
22000;BME280;11164;48.818;2.322;2023-04-29T06:13:18;100855.69;;;15.21;43.36
22000;BME280;11164;48.818;2.322;2023-04-29T06:15:44;100860.81;;;15.10;43.88
22000;BME280;11164;48.818;2.322;2023-04-29T06:18:09;100869.94;;;15.16;43.79
22000;BME280;11164;48.818;2.322;2023-04-29T06:20:34;100867.44;;;15.14;43.98
22000;BME280;11164;48.818;2.322;2023-04-29T06:23:00;100852.31;;;15.25;43.63
22000;BME280;11164;48.818;2.322;2023-04-29T06:25:25;100868.75;;;15.30;43.47
22000;BME280;11164;48.818;2.322;2023-04-29T06:27:50;100872.38;;;15.24;43.86
22000;BME280;11164;48.818;2.322;2023-04-29T06:30:16;100870.53;;;15.18;43.95
22000;BME280;11164;48.818;2.322;2023-04-29T06:32:43;100874.59;;;15.09;44.11
22000;BME280;11164;48.818;2.322;2023-04-29T06:35:08;100874.69;;;14.95;44.28
22000;BME280;11164;48.818;2.322;2023-04-29T06:37:34;100874.16;;;15.12;44.03
22000;BME280;11164;48.818;2.322;2023-04-29T06:39:59;100869.06;;;15.22;43.93
22000;BME280;11164;48.818;2.322;2023-04-29T06:42:25;100872.63;;;14.97;44.33
22000;BME280;11164;48.818;2.322;2023-04-29T06:44:50;100879.25;;;15.02;44.30
22000;BME280;11164;48.818;2.322;2023-04-29T06:47:15;100878.69;;;15.18;44.04
22000;BME280;11164;48.818;2.322;2023-04-29T06:49:41;100877.22;;;15.41;43.59
22000;BME280;11164;48.818;2.322;2023-04-29T06:52:08;100877.00;;;15.24;43.89
22000;BME280;11164;48.818;2.322;2023-04-29T06:54:33;100884.41;;;15.35;44.23
22000;BME280;11164;48.818;2.322;2023-04-29T06:56:58;100881.78;;;15.47;43.68
22000;BME280;11164;48.818;2.322;2023-04-29T06:59:24;100892.31;;;15.36;44.00
22000;BME280;11164;48.818;2.322;2023-04-29T07:01:49;100888.84;;;15.29;44.07
22000;BME280;11164;48.818;2.322;2023-04-29T07:04:16;100892.28;;;15.18;44.17
22000;BME280;11164;48.818;2.322;2023-04-29T07:06:41;100899.22;;;15.39;43.89
22000;BME280;11164;48.818;2.322;2023-04-29T07:09:12;100895.59;;;15.45;43.85
22000;BME280;11164;48.818;2.322;2023-04-29T07:11:42;100893.47;;;15.47;43.97
22000;BME280;11164;48.818;2.322;2023-04-29T07:14:07;100902.81;;;15.33;43.88
22000;BME280;11164;48.818;2.322;2023-04-29T07:16:33;100904.78;;;15.44;44.08
22000;BME280;11164;48.818;2.322;2023-04-29T07:18:58;100901.00;;;15.70;43.68
22000;BME280;11164;48.818;2.322;2023-04-29T07:21:24;100900.63;;;15.42;44.11
22000;BME280;11164;48.818;2.322;2023-04-29T07:23:49;100905.41;;;15.21;44.70
22000;BME280;11164;48.818;2.322;2023-04-29T07:26:16;100914.41;;;14.96;45.22
22000;BME280;11164;48.818;2.322;2023-04-29T07:28:43;100912.00;;;14.75;45.63
22000;BME280;11164;48.818;2.322;2023-04-29T07:31:08;100920.59;;;15.04;44.97
22000;BME280;11164;48.818;2.322;2023-04-29T07:44:52;100935.75;;;14.86;47.45
22000;BME280;11164;48.818;2.322;2023-04-29T07:47:17;100925.81;;;15.30;46.03
22000;BME280;11164;48.818;2.322;2023-04-29T07:49:43;100926.19;;;15.59;45.43
22000;BME280;11164;48.818;2.322;2023-04-29T07:52:08;100926.28;;;15.71;45.17
22000;BME280;11164;48.818;2.322;2023-04-29T07:54:35;100926.34;;;15.64;45.04
22000;BME280;11164;48.818;2.322;2023-04-29T07:57:00;100929.19;;;15.51;45.33
22000;BME280;11164;48.818;2.322;2023-04-29T07:59:27;100933.16;;;15.73;44.80
22000;BME280;11164;48.818;2.322;2023-04-29T08:01:53;100935.31;;;15.90;44.54
22000;BME280;11164;48.818;2.322;2023-04-29T08:04:18;100931.84;;;15.83;44.71
22000;BME280;11164;48.818;2.322;2023-04-29T08:06:44;100928.91;;;15.59;45.05
22000;BME280;11164;48.818;2.322;2023-04-29T08:09:09;100939.34;;;15.62;45.00
22000;BME280;11164;48.818;2.322;2023-04-29T08:11:35;100935.66;;;15.75;44.60
22000;BME280;11164;48.818;2.322;2023-04-29T08:14:00;100935.22;;;16.15;44.06
22000;BME280;11164;48.818;2.322;2023-04-29T08:16:26;100940.38;;;16.05;44.13
22000;BME280;11164;48.818;2.322;2023-04-29T08:18:52;100944.22;;;15.97;44.29
22000;BME280;11164;48.818;2.322;2023-04-29T08:21:18;100935.03;;;15.98;44.20
22000;BME280;11164;48.818;2.322;2023-04-29T08:23:44;100937.56;;;16.11;43.73
22000;BME280;11164;48.818;2.322;2023-04-29T08:26:10;100943.72;;;16.07;44.23
22000;BME280;11164;48.818;2.322;2023-04-29T08:28:37;100931.69;;;15.78;44.72
22000;BME280;11164;48.818;2.322;2023-04-29T08:31:02;100925.63;;;15.94;44.20
22000;BME280;11164;48.818;2.322;2023-04-29T08:33:30;100943.78;;;16.00;44.18
22000;BME280;11164;48.818;2.322;2023-04-29T08:35:59;100952.03;;;16.12;44.22
22000;BME280;11164;48.818;2.322;2023-04-29T08:38:25;100945.88;;;16.35;43.74
22000;BME280;11164;48.818;2.322;2023-04-29T08:40:51;100949.72;;;16.64;43.14
22000;BME280;11164;48.818;2.322;2023-04-29T08:43:16;100958.16;;;16.56;43.44
22000;BME280;11164;48.818;2.322;2023-04-29T08:45:42;100942.63;;;16.08;43.97
22000;BME280;11164;48.818;2.322;2023-04-29T08:48:08;100952.38;;;16.34;43.89
22000;BME280;11164;48.818;2.322;2023-04-29T08:50:39;100947.59;;;16.66;43.27
22000;BME280;11164;48.818;2.322;2023-04-29T08:53:05;100951.84;;;17.04;42.72
22000;BME280;11164;48.818;2.322;2023-04-29T08:55:34;100948.53;;;17.02;42.72
22000;BME280;11164;48.818;2.322;2023-04-29T08:58:01;100945.81;;;17.14;42.68
22000;BME280;11164;48.818;2.322;2023-04-29T09:00:26;100958.31;;;17.34;42.47
22000;BME280;11164;48.818;2.322;2023-04-29T09:02:53;100955.75;;;17.09;43.00
22000;BME280;11164;48.818;2.322;2023-04-29T09:05:21;100956.47;;;17.16;42.83
22000;BME280;11164;48.818;2.322;2023-04-29T09:07:47;100955.53;;;17.10;42.95
22000;BME280;11164;48.818;2.322;2023-04-29T09:10:13;100960.81;;;17.47;42.49
22000;BME280;11164;48.818;2.322;2023-04-29T09:12:39;100962.63;;;17.53;42.55
22000;BME280;11164;48.818;2.322;2023-04-29T09:15:05;100951.47;;;17.55;42.00
22000;BME280;11164;48.818;2.322;2023-04-29T09:17:44;100968.66;;;17.67;41.53
22000;BME280;11164;48.818;2.322;2023-04-29T09:22:49;100959.44;;;17.56;42.29
22000;BME280;11164;48.818;2.322;2023-04-29T09:25:15;100967.00;;;17.66;42.51
22000;BME280;11164;48.818;2.322;2023-04-29T09:27:40;100968.66;;;17.67;42.04
22000;BME280;11164;48.818;2.322;2023-04-29T09:30:07;100975.84;;;17.38;42.64
22000;BME280;11164;48.818;2.322;2023-04-29T09:32:32;100974.38;;;17.12;43.09
22000;BME280;11164;48.818;2.322;2023-04-29T09:34:58;100967.75;;;17.19;42.70
22000;BME280;11164;48.818;2.322;2023-04-29T09:37:26;100977.03;;;17.30;42.74
22000;BME280;11164;48.818;2.322;2023-04-29T09:39:53;100970.25;;;17.33;42.54
22000;BME280;11164;48.818;2.322;2023-04-29T09:42:18;100978.88;;;17.60;41.97
22000;BME280;11164;48.818;2.322;2023-04-29T09:44:44;100972.81;;;17.58;41.86
22000;BME280;11164;48.818;2.322;2023-04-29T09:47:10;100981.34;;;17.73;41.68
22000;BME280;11164;48.818;2.322;2023-04-29T09:49:37;100980.28;;;17.86;41.58
22000;BME280;11164;48.818;2.322;2023-04-29T09:52:06;100980.75;;;17.71;41.65
22000;BME280;11164;48.818;2.322;2023-04-29T09:54:34;100977.38;;;17.34;42.13
22000;BME280;11164;48.818;2.322;2023-04-29T09:57:01;100978.53;;;17.26;42.14
22000;BME280;11164;48.818;2.322;2023-04-29T09:59:30;100979.22;;;17.63;41.88
22000;BME280;11164;48.818;2.322;2023-04-29T10:01:57;100979.09;;;17.70;41.59
22000;BME280;11164;48.818;2.322;2023-04-29T10:04:24;100980.63;;;17.78;41.75
22000;BME280;11164;48.818;2.322;2023-04-29T10:06:55;100973.75;;;17.87;41.51
22000;BME280;11164;48.818;2.322;2023-04-29T10:09:22;100982.38;;;17.96;41.02
22000;BME280;11164;48.818;2.322;2023-04-29T10:11:50;100968.09;;;17.77;41.15
22000;BME280;11164;48.818;2.322;2023-04-29T10:14:21;100980.53;;;17.96;41.32
22000;BME280;11164;48.818;2.322;2023-04-29T10:16:58;100985.97;;;17.73;41.52
22000;BME280;11164;48.818;2.322;2023-04-29T10:19:46;100977.31;;;17.76;41.25
22000;BME280;11164;48.818;2.322;2023-04-29T10:22:25;100980.16;;;17.81;40.79
22000;BME280;11164;48.818;2.322;2023-04-29T10:24:54;100975.63;;;18.10;40.88
22000;BME280;11164;48.818;2.322;2023-04-29T10:27:22;100980.22;;;18.22;40.89
22000;BME280;11164;48.818;2.322;2023-04-29T10:29:49;100976.16;;;18.77;40.13
22000;BME280;11164;48.818;2.322;2023-04-29T10:32:16;100978.91;;;19.22;39.35
22000;BME280;11164;48.818;2.322;2023-04-29T10:34:42;100983.31;;;19.06;39.63
22000;BME280;11164;48.818;2.322;2023-04-29T10:37:11;100978.19;;;18.98;39.75
22000;BME280;11164;48.818;2.322;2023-04-29T10:42:33;100990.41;;;18.50;39.36
22000;BME280;11164;48.818;2.322;2023-04-29T10:50:30;100989.38;;;18.68;39.83
22000;BME280;11164;48.818;2.322;2023-04-29T10:52:56;100991.50;;;18.78;39.79
22000;BME280;11164;48.818;2.322;2023-04-29T10:55:23;100997.22;;;18.76;39.61
22000;BME280;11164;48.818;2.322;2023-04-29T10:57:53;100988.59;;;18.55;39.91
22000;BME280;11164;48.818;2.322;2023-04-29T11:00:21;100995.50;;;18.87;39.38
22000;BME280;11164;48.818;2.322;2023-04-29T11:02:48;100992.06;;;19.08;38.87
22000;BME280;11164;48.818;2.322;2023-04-29T11:05:13;100993.19;;;18.67;39.39
22000;BME280;11164;48.818;2.322;2023-04-29T11:07:38;100990.91;;;18.35;39.72
22000;BME280;11164;48.818;2.322;2023-04-29T11:10:05;100992.13;;;18.68;39.16
22000;BME280;11164;48.818;2.322;2023-04-29T11:12:31;100999.56;;;19.30;38.42
22000;BME280;11164;48.818;2.322;2023-04-29T11:14:57;100973.63;;;19.49;37.81
22000;BME280;11164;48.818;2.322;2023-04-29T11:17:36;100994.66;;;19.66;37.17
22000;BME280;11164;48.818;2.322;2023-04-29T11:20:03;100994.09;;;19.64;37.72
22000;BME280;11164;48.818;2.322;2023-04-29T11:22:28;100988.03;;;19.62;37.86
22000;BME280;11164;48.818;2.322;2023-04-29T11:25:04;100997.25;;;19.22;37.56
22000;BME280;11164;48.818;2.322;2023-04-29T11:27:32;101000.81;;;19.39;38.07
22000;BME280;11164;48.818;2.322;2023-04-29T11:29:59;101008.34;;;19.32;37.99
22000;BME280;11164;48.818;2.322;2023-04-29T11:32:30;101004.53;;;19.50;37.63
22000;BME280;11164;48.818;2.322;2023-04-29T11:35:22;101010.84;;;19.84;35.93
22000;BME280;11164;48.818;2.322;2023-04-29T11:37:48;100997.88;;;19.97;37.07
22000;BME280;11164;48.818;2.322;2023-04-29T11:40:13;100997.56;;;20.54;36.04
22000;BME280;11164;48.818;2.322;2023-04-29T11:42:40;100993.03;;;20.43;36.31
22000;BME280;11164;48.818;2.322;2023-04-29T11:45:07;100996.03;;;20.41;36.48
22000;BME280;11164;48.818;2.322;2023-04-29T11:47:33;100999.22;;;20.55;36.18
22000;BME280;11164;48.818;2.322;2023-04-29T11:50:05;101002.44;;;20.52;35.85
22000;BME280;11164;48.818;2.322;2023-04-29T11:52:34;100991.00;;;20.77;35.86
22000;BME280;11164;48.818;2.322;2023-04-29T11:55:01;100993.34;;;20.96;35.52
22000;BME280;11164;48.818;2.322;2023-04-29T11:57:27;100985.50;;;21.32;35.34
22000;BME280;11164;48.818;2.322;2023-04-29T11:59:53;100984.13;;;21.34;35.16
22000;BME280;11164;48.818;2.322;2023-04-29T12:02:28;100986.44;;;21.48;34.12
22000;BME280;11164;48.818;2.322;2023-04-29T12:04:55;100977.25;;;21.64;34.77
22000;BME280;11164;48.818;2.322;2023-04-29T12:07:22;100980.09;;;21.85;34.35
22000;BME280;11164;48.818;2.322;2023-04-29T12:09:48;100980.59;;;21.71;34.86
22000;BME280;11164;48.818;2.322;2023-04-29T12:12:14;100977.03;;;21.76;34.83
22000;BME280;11164;48.818;2.322;2023-04-29T12:14:40;100987.22;;;21.38;34.81
22000;BME280;11164;48.818;2.322;2023-04-29T12:17:07;100976.16;;;21.28;35.05
22000;BME280;11164;48.818;2.322;2023-04-29T12:19:34;100985.63;;;21.20;34.66
22000;BME280;11164;48.818;2.322;2023-04-29T12:22:04;100975.31;;;21.00;34.75
22000;BME280;11164;48.818;2.322;2023-04-29T12:24:35;100985.16;;;20.69;35.08
22000;BME280;11164;48.818;2.322;2023-04-29T12:27:02;100982.78;;;21.10;34.89
22000;BME280;11164;48.818;2.322;2023-04-29T12:29:27;100982.91;;;20.66;35.22
22000;BME280;11164;48.818;2.322;2023-04-29T12:31:55;100983.84;;;20.10;35.70
22000;BME280;11164;48.818;2.322;2023-04-29T12:34:25;100985.28;;;19.79;35.17
22000;BME280;11164;48.818;2.322;2023-04-29T12:36:53;100981.84;;;19.49;36.04
22000;BME280;11164;48.818;2.322;2023-04-29T12:39:19;100984.13;;;19.92;35.39
22000;BME280;11164;48.818;2.322;2023-04-29T12:41:45;100989.88;;;19.73;35.38
22000;BME280;11164;48.818;2.322;2023-04-29T12:44:10;100988.94;;;20.01;35.01
22000;BME280;11164;48.818;2.322;2023-04-29T12:46:40;100987.81;;;20.64;34.07
22000;BME280;11164;48.818;2.322;2023-04-29T12:49:06;100988.03;;;20.84;33.83
22000;BME280;11164;48.818;2.322;2023-04-29T12:51:32;100993.25;;;20.19;34.76
22000;BME280;11164;48.818;2.322;2023-04-29T12:54:00;100988.44;;;20.27;34.77
22000;BME280;11164;48.818;2.322;2023-04-29T12:56:26;100997.88;;;20.36;34.67
22000;BME280;11164;48.818;2.322;2023-04-29T12:58:52;100990.75;;;20.84;33.67
22000;BME280;11164;48.818;2.322;2023-04-29T13:01:17;100991.66;;;21.49;32.92
22000;BME280;11164;48.818;2.322;2023-04-29T13:03:44;100987.97;;;21.66;33.00
22000;BME280;11164;48.818;2.322;2023-04-29T13:06:09;100975.72;;;21.46;33.44
22000;BME280;11164;48.818;2.322;2023-04-29T13:08:34;100986.47;;;21.53;33.07
22000;BME280;11164;48.818;2.322;2023-04-29T13:11:00;100983.78;;;21.58;33.29
22000;BME280;11164;48.818;2.322;2023-04-29T13:13:25;100985.78;;;21.68;33.38
22000;BME280;11164;48.818;2.322;2023-04-29T13:15:51;100973.41;;;21.00;33.93
22000;BME280;11164;48.818;2.322;2023-04-29T13:18:17;100983.22;;;20.69;34.21
22000;BME280;11164;48.818;2.322;2023-04-29T13:20:43;100980.28;;;20.76;33.93